Terminal Aerodrome Forecast
Issued by NWS

Home | Current Version | Previous Version | Text Only | Print | Product List | Glossary On
Versions: 1 2 3 4 5 6 7 8 9 10 11 12 13 14 15 16 17
000
FTUS42 KMLB 231700
TAFLEE
TAF
KLEE 231740Z 2318/2418 17013G20KT P6SM SCT025 BKN035 BKN250
     FM232000 18015G25KT P6SM VCTS BKN035CB BKN250
     FM240200 19007KT P6SM FEW006 SCT025 BKN200
     FM240600 19006KT 3SM BR OVC003
      TEMPO 2413/2415 BKN006
     FM241500 21010KT P6SM BKN015=

USA.gov is the U.S. government's official web portal to all federal, state and local government web resources and services.